createdAt,value
2022-10-23T00:01:45.513Z,4.78
2022-10-23T00:04:22.247Z,4.93
2022-10-23T00:06:50.711Z,4.30
2022-10-23T00:09:24.313Z,4.80
2022-10-23T00:11:53.290Z,5.72
2022-10-23T00:14:24.894Z,5.38
2022-10-23T00:16:52.841Z,9.57
2022-10-23T00:19:20.330Z,6.30
2022-10-23T00:21:47.810Z,5.85
2022-10-23T00:24:15.354Z,6.30
2022-10-23T00:26:43.537Z,6.50
2022-10-23T00:29:11.693Z,6.10
2022-10-23T00:31:39.462Z,6.55
2022-10-23T00:34:08.528Z,6.10
2022-10-23T00:36:36.804Z,5.55
2022-10-23T00:39:05.503Z,6.30
2022-10-23T00:41:33.285Z,6.10
2022-10-23T00:44:18.912Z,5.70
2022-10-23T00:46:46.374Z,5.90
2022-10-23T00:49:15.719Z,4.88
2022-10-23T00:51:53.314Z,4.88
2022-10-23T00:54:28.004Z,4.72
2022-10-23T00:57:01.792Z,4.53
2022-10-23T00:59:31.627Z,4.95
2022-10-23T01:02:00.317Z,4.47
2022-10-23T01:04:29.963Z,4.88
2022-10-23T01:07:33.847Z,4.60
2022-10-23T01:11:10.853Z,4.70
2022-10-23T01:14:15.998Z,4.80
2022-10-23T01:17:13.200Z,5.47
2022-10-23T01:20:23.363Z,5.45
2022-10-23T01:23:47.294Z,4.63
2022-10-23T01:26:40.819Z,4.82
2022-10-23T01:29:32.999Z,5.32
2022-10-23T01:32:24.276Z,5.88
2022-10-23T01:35:09.202Z,5.93
2022-10-23T01:37:55.485Z,4.68
2022-10-23T01:40:54.905Z,5.40
2022-10-23T01:43:38.672Z,5.68
2022-10-23T01:46:14.673Z,5.20
2022-10-23T01:48:51.520Z,5.65
2022-10-23T01:51:23.253Z,5.93
2022-10-23T01:53:56.435Z,5.50
2022-10-23T01:56:32.275Z,5.40
2022-10-23T01:59:09.846Z,5.22
2022-10-23T02:01:47.167Z,5.57
2022-10-23T02:04:25.644Z,5.78
2022-10-23T02:06:53.234Z,5.93
2022-10-23T02:09:20.699Z,5.72
2022-10-23T02:12:07.004Z,5.85
2022-10-23T02:15:03.006Z,5.97
2022-10-23T02:17:59.492Z,5.82
2022-10-23T02:20:41.035Z,6.30
2022-10-23T02:23:33.308Z,6.38
2022-10-23T02:26:27.661Z,6.05
2022-10-23T02:29:11.247Z,5.28
2022-10-23T02:31:42.769Z,6.57
2022-10-23T02:34:10.526Z,6.45
2022-10-23T02:36:37.996Z,6.13
2022-10-23T02:39:06.060Z,6.30
2022-10-23T02:41:53.933Z,6.45
2022-10-23T02:44:45.620Z,6.00
2022-10-23T02:47:57.097Z,6.05
2022-10-23T02:50:57.027Z,5.72
2022-10-23T02:53:43.553Z,6.18
2022-10-23T02:56:38.621Z,5.22
2022-10-23T02:59:16.584Z,5.82
2022-10-23T03:01:55.469Z,5.55
2022-10-23T03:04:27.701Z,5.20
2022-10-23T03:06:56.577Z,5.38
2022-10-23T03:09:27.287Z,5.47
2022-10-23T03:11:54.518Z,5.28
2022-10-23T03:14:21.712Z,5.97
2022-10-23T03:16:50.770Z,5.40
2022-10-23T03:19:18.106Z,5.53
2022-10-23T03:21:45.238Z,5.22
2022-10-23T03:24:13.033Z,5.28
2022-10-23T03:26:43.587Z,5.25
2022-10-23T03:29:11.007Z,5.13
2022-10-23T03:31:44.435Z,5.30
2022-10-23T03:34:11.874Z,4.78
2022-10-23T03:36:41.622Z,4.65
2022-10-23T03:39:11.071Z,5.38
2022-10-23T03:41:38.978Z,4.95
2022-10-23T03:44:06.328Z,4.75
2022-10-23T03:46:33.560Z,5.22
2022-10-23T03:49:00.872Z,5.20
2022-10-23T03:51:28.174Z,4.70
2022-10-23T03:53:55.621Z,4.60
2022-10-23T03:56:23.394Z,5.00
2022-10-23T03:58:50.749Z,4.90
2022-10-23T04:01:18.066Z,5.40
2022-10-23T04:03:46.450Z,4.47
2022-10-23T04:06:16.207Z,4.88
2022-10-23T04:08:45.678Z,5.18
2022-10-23T04:11:16.068Z,4.95
2022-10-23T04:13:46.574Z,4.57
2022-10-23T04:16:13.756Z,4.82
2022-10-23T04:18:42.308Z,4.40
2022-10-23T04:21:12.154Z,4.65
2022-10-23T04:23:46.447Z,4.80
2022-10-23T04:26:17.482Z,4.50
2022-10-23T04:28:45.086Z,4.72
2022-10-23T04:31:12.629Z,4.43
2022-10-23T04:33:41.964Z,4.50
2022-10-23T04:36:10.166Z,5.00
2022-10-23T04:38:37.695Z,4.68
2022-10-23T04:41:07.149Z,4.05
2022-10-23T04:43:34.879Z,4.40
2022-10-23T04:46:04.012Z,4.70
2022-10-23T04:48:31.840Z,4.65
2022-10-23T04:51:22.235Z,4.68
2022-10-23T04:54:05.584Z,5.13
2022-10-23T04:56:45.684Z,5.10
2022-10-23T04:59:16.744Z,4.93
2022-10-23T05:01:44.943Z,4.70
2022-10-23T05:04:14.377Z,4.82
2022-10-23T05:07:01.993Z,4.50
2022-10-23T05:10:08.652Z,4.27
2022-10-23T05:12:45.590Z,4.68
2022-10-23T05:15:12.775Z,4.22
2022-10-23T05:17:47.189Z,4.90
2022-10-23T05:20:22.413Z,4.55
2022-10-23T05:22:53.205Z,5.00
2022-10-23T05:25:24.581Z,4.10
2022-10-23T05:28:00.452Z,4.18
2022-10-23T05:30:27.979Z,4.47
2022-10-23T05:32:55.498Z,4.72
2022-10-23T05:35:25.936Z,4.35
2022-10-23T05:37:56.146Z,5.28
2022-10-23T05:40:26.582Z,4.38
2022-10-23T05:42:59.759Z,4.32
2022-10-23T05:45:55.912Z,4.75
2022-10-23T05:51:49.200Z,4.75
2022-10-23T05:54:28.987Z,4.70
2022-10-23T05:57:14.797Z,5.03
2022-10-23T05:59:45.505Z,4.50
2022-10-23T06:02:33.630Z,4.28
2022-10-23T06:05:11.171Z,4.70
2022-10-23T06:07:59.545Z,4.72
2022-10-23T06:10:28.156Z,4.78
2022-10-23T06:12:58.033Z,6.03
2022-10-23T06:15:26.804Z,5.30
2022-10-23T06:18:05.069Z,5.45
2022-10-23T06:20:40.192Z,5.50
2022-10-23T06:23:16.872Z,5.00
2022-10-23T06:26:05.381Z,5.30
2022-10-23T06:28:41.245Z,4.95
2022-10-23T06:31:13.302Z,4.95
2022-10-23T06:33:42.079Z,6.35
2022-10-23T06:36:10.842Z,5.10
2022-10-23T06:38:40.991Z,4.90
2022-10-23T06:41:20.280Z,5.55
2022-10-23T06:43:53.325Z,5.50
2022-10-23T06:46:40.820Z,4.65
2022-10-23T06:49:33.727Z,4.68
2022-10-23T06:52:02.462Z,5.18
2022-10-23T06:54:29.632Z,4.95
2022-10-23T06:57:19.598Z,4.53
2022-10-23T06:59:47.560Z,4.65
2022-10-23T07:02:17.391Z,5.18
2022-10-23T07:04:45.178Z,5.10
2022-10-23T07:07:18.162Z,4.63
2022-10-23T07:09:48.197Z,4.97
2022-10-23T07:12:39.408Z,4.78
2022-10-23T07:15:32.285Z,4.45
2022-10-23T07:17:59.662Z,4.22
2022-10-23T07:20:34.084Z,4.63
2022-10-23T07:23:01.345Z,4.50
2022-10-23T07:25:34.442Z,4.15
2022-10-23T07:28:01.832Z,3.92
2022-10-23T07:30:31.827Z,4.25
2022-10-23T07:33:01.745Z,3.60
2022-10-23T07:35:34.278Z,4.13
2022-10-23T07:38:07.739Z,4.07
2022-10-23T07:40:38.564Z,3.55
2022-10-23T07:43:08.035Z,3.75
2022-10-23T07:45:35.346Z,4.07
2022-10-23T07:48:09.496Z,4.20
2022-10-23T07:51:14.893Z,2.97
2022-10-23T07:53:45.660Z,3.65
2022-10-23T07:56:45.204Z,3.40
2022-10-23T07:59:24.546Z,3.72
2022-10-23T08:01:56.533Z,4.53
2022-10-23T08:07:07.014Z,3.97
2022-10-23T08:09:40.309Z,4.03
2022-10-23T08:12:09.925Z,4.00
2022-10-23T08:14:37.255Z,3.20
2022-10-23T08:17:05.249Z,3.17
2022-10-23T08:20:02.354Z,3.30
2022-10-23T08:22:37.127Z,2.90
2022-10-23T08:25:05.559Z,2.75
2022-10-23T08:27:32.885Z,2.50
2022-10-23T08:30:00.165Z,2.40
2022-10-23T08:32:32.013Z,2.80
2022-10-23T08:35:00.835Z,2.72
2022-10-23T08:37:34.298Z,2.58
2022-10-23T08:40:01.886Z,3.25
2022-10-23T08:43:16.171Z,2.40
2022-10-23T08:46:09.390Z,2.30
2022-10-23T08:49:34.781Z,2.10
2022-10-23T08:52:46.844Z,2.33
2022-10-23T08:55:35.557Z,3.15
2022-10-23T08:58:29.629Z,2.42
2022-10-23T09:00:56.877Z,2.60
2022-10-23T09:03:24.248Z,2.40
2022-10-23T09:06:09.719Z,2.67
2022-10-23T09:09:14.519Z,2.50
2022-10-23T09:12:12.816Z,2.75
2022-10-23T09:15:04.811Z,2.47
2022-10-23T09:17:40.967Z,2.10
2022-10-23T09:20:28.243Z,2.40
2022-10-23T09:23:23.307Z,2.10
2022-10-23T09:25:56.920Z,2.10
2022-10-23T09:28:47.328Z,2.50
2022-10-23T09:31:14.934Z,2.28
2022-10-23T09:33:56.205Z,2.13
2022-10-23T09:36:27.502Z,2.40
2022-10-23T09:38:59.128Z,1.90
2022-10-23T09:41:38.578Z,1.77
2022-10-23T09:44:08.791Z,1.70
2022-10-23T09:49:30.763Z,1.80
2022-10-23T09:52:41.520Z,1.50
2022-10-23T09:55:36.995Z,1.95
2022-10-23T09:58:05.412Z,1.52
2022-10-23T10:00:33.409Z,4.38
2022-10-23T10:03:07.179Z,1.55
2022-10-23T10:05:43.914Z,1.30
2022-10-23T10:08:47.730Z,3.47
2022-10-23T10:11:52.912Z,1.40
2022-10-23T10:14:54.443Z,1.33
2022-10-23T10:17:43.343Z,2.50
2022-10-23T10:20:43.017Z,1.67
2022-10-23T10:23:55.777Z,1.30
2022-10-23T10:27:18.552Z,1.60
2022-10-23T10:30:15.871Z,1.10
2022-10-23T10:33:18.389Z,1.58
2022-10-23T10:36:05.313Z,1.35
2022-10-23T10:38:51.938Z,1.60
2022-10-23T10:42:00.965Z,1.20
2022-10-23T10:45:17.129Z,2.08
2022-10-23T10:48:23.769Z,1.30
2022-10-23T10:51:51.861Z,1.30
2022-10-23T10:55:09.734Z,1.30
2022-10-23T10:57:45.587Z,1.30
2022-10-23T11:00:19.813Z,1.10
2022-10-23T11:03:24.810Z,1.00
2022-10-23T11:06:01.141Z,1.17
2022-10-23T11:08:50.137Z,1.15
2022-10-23T11:11:40.876Z,1.00
2022-10-23T11:14:33.722Z,1.05
2022-10-23T11:17:16.965Z,1.10
2022-10-23T11:20:10.381Z,1.33
2022-10-23T11:22:47.473Z,1.52
2022-10-23T11:25:51.485Z,1.00
2022-10-23T11:29:11.010Z,1.23
2022-10-23T11:32:35.038Z,1.02
2022-10-23T11:35:26.574Z,1.05
2022-10-23T11:38:17.476Z,1.20
2022-10-23T11:40:55.909Z,1.23
2022-10-23T11:43:27.793Z,1.40
2022-10-23T11:45:55.421Z,1.10
2022-10-23T11:48:41.697Z,1.30
2022-10-23T11:51:32.661Z,1.10
2022-10-23T11:54:12.296Z,1.15
2022-10-23T11:57:15.695Z,1.42
2022-10-23T11:59:48.602Z,1.10
2022-10-23T12:02:38.365Z,2.20
2022-10-23T12:05:34.835Z,2.30
2022-10-23T12:08:24.456Z,1.67
2022-10-23T12:10:52.916Z,1.55
2022-10-23T12:13:38.510Z,1.15
2022-10-23T12:16:10.061Z,1.20
2022-10-23T12:18:53.612Z,1.60
2022-10-23T12:21:28.264Z,1.45
2022-10-23T12:24:22.681Z,1.10
2022-10-23T12:27:23.226Z,1.67
2022-10-23T12:30:22.703Z,1.60
2022-10-23T12:33:26.479Z,1.52
2022-10-23T12:36:44.596Z,1.67
2022-10-23T12:39:39.064Z,2.25
2022-10-23T12:42:30.571Z,1.60
2022-10-23T12:45:30.390Z,1.70
2022-10-23T12:47:58.075Z,2.38
2022-10-23T12:50:30.715Z,2.63
2022-10-23T12:53:07.659Z,2.60
2022-10-23T12:56:07.113Z,2.10
2022-10-23T12:58:37.432Z,2.80
2022-10-23T13:01:07.774Z,2.97
2022-10-23T13:03:36.169Z,2.33
2022-10-23T13:06:04.838Z,2.47
2022-10-23T13:08:46.097Z,2.05
2022-10-23T13:11:28.409Z,2.15
2022-10-23T13:13:58.852Z,2.13
2022-10-23T13:16:27.122Z,2.30
2022-10-23T13:18:54.386Z,2.28
2022-10-23T13:21:25.648Z,2.33
2022-10-23T13:23:54.100Z,2.30
2022-10-23T13:26:44.894Z,1.60
2022-10-23T13:29:22.227Z,1.88
2022-10-23T13:31:51.024Z,1.70
2022-10-23T13:34:30.385Z,1.60
2022-10-23T13:37:28.552Z,1.80
2022-10-23T13:40:09.636Z,1.92
2022-10-23T13:42:39.855Z,2.10
2022-10-23T13:45:22.974Z,2.28
2022-10-23T13:47:51.009Z,2.20
2022-10-23T13:50:20.474Z,2.00
2022-10-23T13:52:48.946Z,1.90
2022-10-23T13:55:25.148Z,1.63
2022-10-23T13:57:53.186Z,2.45
2022-10-23T14:00:21.209Z,2.00
2022-10-23T14:02:48.723Z,2.13
2022-10-23T14:05:17.368Z,1.65
2022-10-23T14:07:45.283Z,1.70
2022-10-23T14:10:13.253Z,3.53
2022-10-23T14:12:44.257Z,2.60
2022-10-23T14:15:12.860Z,2.13
2022-10-23T14:17:40.188Z,2.30
2022-10-23T14:20:09.798Z,1.80
2022-10-23T14:22:37.293Z,1.98
2022-10-23T14:25:08.848Z,2.50
2022-10-23T14:27:36.488Z,2.20
2022-10-23T14:30:05.950Z,1.92
2022-10-23T14:32:33.187Z,1.30
2022-10-23T14:35:03.774Z,3.30
2022-10-23T14:37:35.213Z,2.20
2022-10-23T14:40:02.784Z,3.60
2022-10-23T14:42:34.318Z,5.30
2022-10-23T14:45:05.196Z,4.53
2022-10-23T14:47:33.080Z,3.13
2022-10-23T14:50:01.188Z,3.03
2022-10-23T14:52:28.596Z,2.85
2022-10-23T14:55:01.926Z,2.78
2022-10-23T14:57:56.689Z,2.15
2022-10-23T15:00:24.334Z,2.30
2022-10-23T15:02:51.699Z,2.20
2022-10-23T15:05:19.205Z,2.60
2022-10-23T15:07:46.404Z,2.72
2022-10-23T15:10:13.612Z,2.65
2022-10-23T15:12:41.135Z,2.28
2022-10-23T15:15:09.681Z,2.60
2022-10-23T15:17:39.066Z,2.80
2022-10-23T15:20:07.943Z,4.30
2022-10-23T15:22:35.114Z,4.88
2022-10-23T15:25:02.330Z,5.10
2022-10-23T15:27:29.628Z,7.93
2022-10-23T15:29:56.774Z,16.85
2022-10-23T15:32:24.092Z,10.38
2022-10-23T15:34:52.378Z,8.63
2022-10-23T15:37:19.639Z,22.75
2022-10-23T15:39:46.805Z,26.55
2022-10-23T15:42:19.681Z,10.15
2022-10-23T15:44:53.916Z,8.43
2022-10-23T15:47:23.366Z,5.60
2022-10-23T15:49:50.497Z,6.53
2022-10-23T15:52:17.673Z,10.68
2022-10-23T15:54:44.787Z,16.98
2022-10-23T15:57:11.979Z,13.50
2022-10-23T15:59:39.222Z,10.25
2022-10-23T16:02:06.578Z,9.20
2022-10-23T16:04:35.278Z,9.13
2022-10-23T16:07:02.414Z,9.60
2022-10-23T16:09:29.850Z,8.23
2022-10-23T16:11:57.016Z,6.85
2022-10-23T16:14:24.659Z,4.90
2022-10-23T16:16:52.273Z,7.82
2022-10-23T16:19:19.657Z,6.15
2022-10-23T16:21:46.895Z,6.63
2022-10-23T16:24:14.283Z,8.10
2022-10-23T16:26:41.645Z,6.28
2022-10-23T16:29:09.958Z,5.20
2022-10-23T16:31:37.940Z,4.80
2022-10-23T16:34:07.792Z,4.35
2022-10-23T16:36:39.000Z,3.75
2022-10-23T16:39:31.424Z,4.07
2022-10-23T16:42:28.337Z,4.88
2022-10-23T16:45:14.654Z,5.07
2022-10-23T16:47:42.035Z,6.43
2022-10-23T16:50:09.515Z,9.02
2022-10-23T16:52:36.722Z,7.20
2022-10-23T16:55:10.812Z,5.38
2022-10-23T16:57:38.526Z,4.97
2022-10-23T17:00:07.541Z,5.93
2022-10-23T17:02:35.229Z,5.53
2022-10-23T17:05:02.706Z,5.28
2022-10-23T17:07:30.678Z,4.95
2022-10-23T17:09:57.830Z,5.00
2022-10-23T17:12:25.051Z,4.75
2022-10-23T17:14:52.507Z,5.00
2022-10-23T17:17:19.960Z,6.05
2022-10-23T17:19:47.240Z,5.32
2022-10-23T17:22:15.449Z,5.30
2022-10-23T17:24:46.294Z,5.32
2022-10-23T17:27:16.268Z,4.53
2022-10-23T17:29:43.601Z,4.25
2022-10-23T17:32:11.124Z,5.20
2022-10-23T17:34:38.383Z,4.95
2022-10-23T17:37:05.633Z,4.55
2022-10-23T17:39:33.161Z,5.95
2022-10-23T17:42:00.516Z,6.15
2022-10-23T17:44:29.078Z,6.30
2022-10-23T17:46:59.591Z,5.45
2022-10-23T17:49:26.749Z,4.53
2022-10-23T17:51:57.560Z,4.03
2022-10-23T17:54:27.166Z,4.00
2022-10-23T17:56:54.927Z,4.18
2022-10-23T17:59:22.366Z,4.03
2022-10-23T18:01:50.185Z,4.22
2022-10-23T18:04:20.618Z,4.25
2022-10-23T18:06:53.716Z,4.53
2022-10-23T18:09:23.411Z,5.10
2022-10-23T18:11:52.671Z,6.30
2022-10-23T18:14:26.109Z,5.93
2022-10-23T18:16:55.952Z,5.25
2022-10-23T18:19:23.117Z,4.82
2022-10-23T18:21:50.475Z,5.43
2022-10-23T18:24:19.035Z,5.80
2022-10-23T18:26:50.105Z,6.20
2022-10-23T18:29:17.944Z,6.60
2022-10-23T18:31:48.069Z,5.88
2022-10-23T18:34:23.400Z,5.32
2022-10-23T18:36:55.708Z,5.70
2022-10-23T18:39:25.555Z,5.82
2022-10-23T18:41:57.961Z,6.15
2022-10-23T18:44:29.039Z,8.20
2022-10-23T18:46:59.060Z,8.18
2022-10-23T18:49:27.261Z,7.25
2022-10-23T18:51:54.843Z,6.20
2022-10-23T18:54:22.518Z,6.03
2022-10-23T18:56:50.392Z,6.57
2022-10-23T18:59:20.728Z,8.73
2022-10-23T19:01:49.206Z,8.73
2022-10-23T19:04:18.343Z,6.80
2022-10-23T19:06:48.583Z,7.20
2022-10-23T19:09:16.858Z,7.35
2022-10-23T19:11:45.636Z,7.03
2022-10-23T19:14:13.259Z,7.15
2022-10-23T19:16:58.591Z,7.53
2022-10-23T19:19:36.588Z,8.95
2022-10-23T19:22:04.961Z,6.45
2022-10-23T19:24:51.116Z,6.82
2022-10-23T19:27:19.796Z,7.93
2022-10-23T19:29:51.855Z,6.10
2022-10-23T19:32:19.068Z,6.43
2022-10-23T19:34:46.393Z,5.93
2022-10-23T19:39:47.186Z,5.43
2022-10-23T19:42:14.538Z,5.68
2022-10-23T19:44:41.729Z,5.80
2022-10-23T19:47:08.946Z,5.70
2022-10-23T19:49:36.061Z,5.60
2022-10-23T19:52:03.358Z,5.40
2022-10-23T19:54:31.634Z,7.53
2022-10-23T19:56:59.109Z,5.82
2022-10-23T19:59:26.239Z,5.60
2022-10-23T20:01:53.540Z,5.10
2022-10-23T20:04:20.759Z,6.43
2022-10-23T20:06:48.012Z,5.15
2022-10-23T20:09:15.943Z,7.07
2022-10-23T20:11:45.110Z,4.68
2022-10-23T20:14:13.852Z,7.93
2022-10-23T20:16:45.258Z,5.28
2022-10-23T20:21:50.055Z,4.93
2022-10-23T20:24:20.125Z,4.78
2022-10-23T20:26:53.395Z,6.15
2022-10-23T20:29:22.623Z,3.50
2022-10-23T20:31:49.835Z,3.50
2022-10-23T20:34:19.028Z,3.50
2022-10-23T20:36:53.704Z,2.75
2022-10-23T20:39:26.457Z,2.28
2022-10-23T20:41:57.450Z,2.55
2022-10-23T20:44:25.060Z,2.88
2022-10-23T20:46:52.629Z,2.58
2022-10-23T20:49:21.267Z,2.27
2022-10-23T20:51:55.700Z,2.50
2022-10-23T20:54:28.800Z,2.25
2022-10-23T20:56:59.682Z,2.03
2022-10-23T20:59:26.835Z,1.88
2022-10-23T21:01:56.187Z,1.85
2022-10-23T21:04:29.005Z,1.67
2022-10-23T21:07:09.860Z,1.67
2022-10-23T21:09:38.545Z,1.70
2022-10-23T21:12:06.620Z,1.65
2022-10-23T21:14:35.355Z,1.50
2022-10-23T21:17:03.900Z,1.30
2022-10-23T21:19:31.310Z,1.60
2022-10-23T21:21:59.680Z,2.08
2022-10-23T21:24:26.898Z,1.60
2022-10-23T21:26:54.015Z,1.70
2022-10-23T21:29:21.194Z,1.75
2022-10-23T21:31:58.197Z,1.30
2022-10-23T21:34:27.404Z,1.48
2022-10-23T21:39:44.261Z,1.63
2022-10-23T21:42:14.465Z,1.60
2022-10-23T21:44:42.087Z,1.58
2022-10-23T21:47:09.608Z,1.17
2022-10-23T21:49:37.036Z,1.48
2022-10-23T21:52:04.693Z,1.45
2022-10-23T21:54:31.942Z,1.27
2022-10-23T21:56:59.314Z,1.50
2022-10-23T21:59:30.153Z,1.42
2022-10-23T22:01:59.407Z,1.27
2022-10-23T22:04:26.764Z,1.60
2022-10-23T22:06:53.871Z,1.40
2022-10-23T22:09:22.863Z,1.27
2022-10-23T22:11:53.152Z,1.75
2022-10-23T22:14:21.363Z,1.70
2022-10-23T22:16:49.718Z,1.17
2022-10-23T22:19:19.316Z,1.40
2022-10-23T22:21:52.751Z,1.45
2022-10-23T22:24:20.505Z,1.33
2022-10-23T22:26:56.916Z,1.30
2022-10-23T22:29:29.421Z,1.75
2022-10-23T22:31:58.217Z,1.25
2022-10-23T22:37:17.149Z,1.70
2022-10-23T22:39:44.740Z,1.45
2022-10-23T22:42:12.343Z,1.30
2022-10-23T22:44:39.547Z,1.10
2022-10-23T22:47:07.205Z,1.50
2022-10-23T22:49:34.428Z,1.50
2022-10-23T22:52:01.624Z,1.42
2022-10-23T22:54:31.200Z,1.60
2022-10-23T22:56:58.791Z,1.23
2022-10-23T22:59:26.005Z,1.42
2022-10-23T23:01:53.137Z,1.52
2022-10-23T23:07:12.211Z,1.27
2022-10-23T23:09:44.717Z,1.10
2022-10-23T23:12:15.014Z,1.17
2022-10-23T23:14:43.414Z,1.70
2022-10-23T23:17:13.129Z,1.25
2022-10-23T23:19:40.593Z,1.45
2022-10-23T23:22:08.436Z,1.67
2022-10-23T23:24:35.986Z,1.45
2022-10-23T23:27:03.268Z,1.30
2022-10-23T23:29:30.426Z,1.58
2022-10-23T23:31:58.072Z,1.67
2022-10-23T23:34:25.347Z,1.75
2022-10-23T23:36:54.772Z,1.75
2022-10-23T23:39:47.240Z,1.45
2022-10-23T23:42:14.807Z,1.90
2022-10-23T23:44:50.318Z,1.50
2022-10-23T23:47:30.094Z,1.90
2022-10-23T23:49:57.197Z,1.58
2022-10-23T23:52:24.359Z,1.10
2022-10-23T23:54:51.675Z,1.40
2022-10-23T23:57:19.070Z,1.23
2022-10-23T23:59:46.825Z,1.60
